Time;durP1;ratioP1;P1;durP2;ratioP2;P2;SDS_P1;SDS_P2;PMS_P1;PMS_P2;Temp;Humidity;BMP_temperature;BMP_pressure;BME280_temperature;BME280_humidity;BME280_pressure;Samples;Min_cycle;Max_cycle;Signal;HPM_P1;HPM_P2
2022/04/05 00:02:08;;;;;;;11.27;9.07;;;3.30;80.00;;;;;;6259316;28;20329;-62
2022/04/05 00:05:09;;;;;;;11.93;9.33;;;3.30;79.40;;;;;;6274450;28;20197;-62
2022/04/05 00:08:10;;;;;;;11.27;8.60;;;3.30;79.50;;;;;;6274301;28;20239;-63
2022/04/05 00:11:11;;;;;;;10.57;8.53;;;3.20;78.80;;;;;;6258209;28;20182;-62
2022/04/05 00:14:12;;;;;;;11.27;8.50;;;3.20;79.10;;;;;;6283489;28;20212;-61
2022/04/05 00:17:13;;;;;;;10.53;8.20;;;3.20;79.30;;;;;;6282596;28;20204;-61
2022/04/05 00:20:14;;;;;;;9.37;8.07;;;3.30;79.60;;;;;;6281838;28;20322;-61
2022/04/05 00:23:15;;;;;;;11.80;8.73;;;3.20;79.20;;;;;;6281149;28;20221;-61
2022/04/05 00:26:16;;;;;;;12.43;8.60;;;3.20;79.20;;;;;;6298742;28;20181;-62
2022/04/05 00:29:19;;;;;;;10.67;8.80;;;3.20;79.60;;;;;;6298308;28;20233;-62
2022/04/05 00:32:20;;;;;;;12.63;9.40;;;3.20;78.80;;;;;;6275752;28;20189;-60
2022/04/05 00:35:21;;;;;;;11.57;8.80;;;3.20;79.40;;;;;;6281645;28;20204;-61
2022/04/05 00:38:22;;;;;;;10.40;8.03;;;3.20;79.30;;;;;;6292770;28;20190;-61
2022/04/05 00:41:23;;;;;;;9.80;8.43;;;3.10;79.40;;;;;;6273595;28;20281;-60
2022/04/05 00:44:24;;;;;;;11.47;8.67;;;3.20;79.10;;;;;;6257147;28;20190;-63
2022/04/05 00:47:26;;;;;;;10.87;8.23;;;3.20;79.00;;;;;;6256574;28;20188;-61
2022/04/05 00:50:27;;;;;;;10.87;7.90;;;3.10;78.90;;;;;;6273886;28;20206;-62
2022/04/05 00:53:30;;;;;;;10.43;9.23;;;3.10;79.10;;;;;;6277984;28;20201;-62
2022/04/05 00:56:34;;;;;;;11.40;8.77;;;3.00;79.40;;;;;;6297817;28;20231;-62
2022/04/05 00:59:38;;;;;;;12.80;9.20;;;2.90;80.10;;;;;;6300932;28;20284;-61
2022/04/05 01:02:39;;;;;;;9.17;8.03;;;2.90;80.10;;;;;;6292425;28;20288;-61
2022/04/05 01:05:40;;;;;;;9.73;7.93;;;2.90;80.20;;;;;;6297689;28;20204;-61
2022/04/05 01:08:43;;;;;;;10.40;8.70;;;2.90;79.90;;;;;;6296888;28;20192;-61
2022/04/05 01:11:45;;;;;;;10.43;7.83;;;2.90;80.20;;;;;;6264045;28;20655;-60
2022/04/05 01:14:47;;;;;;;10.43;7.53;;;2.80;80.50;;;;;;6280752;28;20195;-61
2022/04/05 01:17:47;;;;;;;12.97;9.10;;;2.90;80.10;;;;;;6288624;28;20209;-61
2022/04/05 01:20:51;;;;;;;14.03;8.73;;;3.00;79.60;;;;;;6256641;28;20213;-61
2022/04/05 01:24:08;;;;;;;9.53;7.53;;;3.00;79.40;;;;;;6290981;28;20202;-61
2022/04/05 01:27:16;;;;;;;11.13;7.90;;;3.00;79.70;;;;;;6310789;28;20198;-61
2022/04/05 01:30:17;;;;;;;11.60;8.70;;;2.90;80.00;;;;;;6324900;28;20289;-61
2022/04/05 01:33:18;;;;;;;9.83;8.23;;;2.80;80.40;;;;;;6290340;28;20235;-61
2022/04/05 01:36:22;;;;;;;10.10;8.03;;;2.90;80.00;;;;;;6300361;28;20188;-61
2022/04/05 01:39:30;;;;;;;10.67;8.40;;;3.00;79.40;;;;;;6278550;28;20193;-61
2022/04/05 01:42:31;;;;;;;9.73;8.30;;;3.00;79.30;;;;;;6301937;28;20205;-61
2022/04/05 01:45:32;;;;;;;13.60;10.07;;;3.00;79.50;;;;;;6252753;28;20188;-61
2022/04/05 01:48:32;;;;;;;10.87;8.37;;;3.00;79.50;;;;;;6267587;28;20199;-62
2022/04/05 01:51:37;;;;;;;11.03;8.80;;;2.90;79.70;;;;;;6285648;28;20182;-61
2022/04/05 01:54:41;;;;;;;12.13;9.30;;;2.90;79.60;;;;;;6285101;28;20204;-62
2022/04/05 01:57:42;;;;;;;10.40;7.50;;;2.80;79.60;;;;;;6301338;28;20204;-61
2022/04/05 02:00:42;;;;;;;9.30;7.87;;;2.80;80.10;;;;;;6287857;28;20250;-60
2022/04/05 02:03:43;;;;;;;11.70;8.80;;;2.80;80.00;;;;;;6276041;28;20196;-61
2022/04/05 02:06:44;;;;;;;11.60;8.97;;;2.80;79.80;;;;;;6293270;28;20509;-61
2022/04/05 02:09:48;;;;;;;9.87;8.00;;;2.70;79.90;;;;;;6298099;28;20193;-62
2022/04/05 02:12:52;;;;;;;12.43;8.70;;;2.70;80.00;;;;;;6301215;28;20193;-62
2022/04/05 02:16:15;;;;;;;9.20;7.93;;;2.70;80.00;;;;;;6281468;28;20224;-61
2022/04/05 02:19:17;;;;;;;9.13;7.70;;;2.70;80.50;;;;;;6259810;28;20184;-62
2022/04/05 02:22:18;;;;;;;9.70;7.60;;;2.70;80.00;;;;;;6284149;28;20286;-63
2022/04/05 02:25:21;;;;;;;8.20;7.20;;;2.60;80.40;;;;;;6284389;28;20231;-62
2022/04/05 02:28:22;;;;;;;11.90;9.03;;;2.60;80.30;;;;;;6291481;28;20243;-62
2022/04/05 02:31:28;;;;;;;10.87;8.17;;;2.50;80.50;;;;;;6264618;28;20250;-62
2022/04/05 02:34:29;;;;;;;12.17;7.80;;;2.50;80.30;;;;;;6262077;28;20197;-62
2022/04/05 02:37:34;;;;;;;8.97;7.67;;;2.40;81.00;;;;;;6259238;28;20194;-62
2022/04/05 02:40:36;;;;;;;10.53;8.20;;;2.30;80.80;;;;;;6267494;28;20219;-62
2022/04/05 02:43:38;;;;;;;11.40;8.47;;;2.30;81.20;;;;;;6299540;28;20173;-63
2022/04/05 02:46:39;;;;;;;11.07;8.43;;;2.30;81.30;;;;;;6277809;28;20214;-62
2022/04/05 02:49:41;;;;;;;9.70;8.30;;;2.30;81.00;;;;;;6284486;28;20177;-62
2022/04/05 02:52:50;;;;;;;12.20;8.23;;;2.40;81.00;;;;;;6288347;28;20190;-62
2022/04/05 02:55:53;;;;;;;8.73;7.47;;;2.40;80.60;;;;;;6294514;28;20265;-63
2022/04/05 02:58:54;;;;;;;10.40;7.90;;;2.40;80.70;;;;;;6281967;28;20195;-63
2022/04/05 03:01:55;;;;;;;9.53;7.50;;;2.40;80.40;;;;;;6281051;28;20225;-62
2022/04/05 03:04:56;;;;;;;13.03;8.33;;;2.30;80.60;;;;;;6307492;28;20212;-63
2022/04/05 03:07:58;;;;;;;8.30;7.20;;;2.40;80.70;;;;;;6284060;28;20181;-62
2022/04/05 03:11:01;;;;;;;8.57;7.20;;;2.40;80.30;;;;;;6300464;28;20192;-60
2022/04/05 03:14:03;;;;;;;9.13;7.27;;;2.40;80.10;;;;;;6260902;28;20196;-61
2022/04/05 03:17:04;;;;;;;10.33;9.00;;;2.30;80.30;;;;;;6293468;28;20199;-61
2022/04/05 03:20:05;;;;;;;9.83;7.30;;;2.20;80.60;;;;;;6295283;28;20215;-62
2022/04/05 03:23:07;;;;;;;9.67;7.43;;;2.10;81.00;;;;;;6295141;28;20191;-62
2022/04/05 03:26:08;;;;;;;10.63;7.77;;;2.10;81.00;;;;;;6285703;28;20200;-62
2022/04/05 03:29:10;;;;;;;8.87;6.90;;;2.10;81.00;;;;;;6282424;28;20287;-61
2022/04/05 03:32:11;;;;;;;9.27;7.17;;;2.10;80.70;;;;;;6283023;28;20283;-61
2022/04/05 03:35:14;;;;;;;11.80;7.53;;;2.00;80.70;;;;;;6286171;28;20196;-61
2022/04/05 03:38:16;;;;;;;9.13;7.90;;;1.90;81.30;;;;;;6284125;28;20192;-62
2022/04/05 03:41:17;;;;;;;12.80;8.30;;;1.90;81.60;;;;;;6301612;28;20227;-62
2022/04/05 03:44:20;;;;;;;12.37;8.67;;;1.80;81.80;;;;;;6300385;28;20190;-63
2022/04/05 03:47:24;;;;;;;9.57;7.53;;;1.90;81.10;;;;;;6301113;28;20185;-62
2022/04/05 03:50:25;;;;;;;9.67;7.83;;;1.80;81.70;;;;;;6301194;28;20200;-62
2022/04/05 03:53:28;;;;;;;9.83;7.93;;;1.80;81.70;;;;;;6287191;28;20222;-62
2022/04/05 03:56:29;;;;;;;9.90;7.23;;;1.90;81.60;;;;;;6280776;28;20192;-63
2022/04/05 03:59:34;;;;;;;10.57;7.93;;;1.80;82.00;;;;;;6277808;28;20191;-62
2022/04/05 04:02:36;;;;;;;10.17;7.77;;;1.80;81.70;;;;;;6300017;28;20279;-62
2022/04/05 04:05:38;;;;;;;9.73;7.17;;;1.80;81.70;;;;;;6293030;28;20243;-63
2022/04/05 04:08:42;;;;;;;9.90;7.30;;;1.90;81.70;;;;;;6282555;28;20189;-62
2022/04/05 04:11:44;;;;;;;9.33;7.63;;;1.90;81.90;;;;;;6265626;28;20216;-62
2022/04/05 04:14:45;;;;;;;9.00;7.50;;;1.90;82.30;;;;;;6264708;28;20770;-62
2022/04/05 04:17:54;;;;;;;10.47;7.50;;;2.00;82.00;;;;;;6274148;28;20196;-61
2022/04/05 04:20:56;;;;;;;8.80;7.53;;;2.00;81.90;;;;;;6283134;28;20212;-62
2022/04/05 04:23:59;;;;;;;8.63;7.73;;;2.00;82.10;;;;;;6290920;28;20193;-62
2022/04/05 04:27:00;;;;;;;10.80;7.90;;;2.20;81.70;;;;;;6284934;28;20192;-62
2022/04/05 04:30:02;;;;;;;11.80;7.83;;;2.20;81.50;;;;;;6293714;28;20231;-61
2022/04/05 04:33:04;;;;;;;9.37;7.07;;;2.20;81.50;;;;;;6274891;28;20188;-62
2022/04/05 04:36:05;;;;;;;12.43;8.83;;;2.20;81.40;;;;;;6295815;28;20188;-62
2022/04/05 04:39:10;;;;;;;11.53;8.70;;;2.20;81.80;;;;;;6291462;28;20197;-62
2022/04/05 04:42:12;;;;;;;12.23;8.90;;;2.30;80.80;;;;;;6287606;28;20311;-62
2022/04/05 04:45:13;;;;;;;10.33;7.83;;;2.30;80.80;;;;;;6298687;28;20200;-62
2022/04/05 04:48:14;;;;;;;12.70;9.77;;;2.40;80.70;;;;;;6304216;28;20237;-61
2022/04/05 04:51:15;;;;;;;12.90;9.83;;;2.50;80.30;;;;;;6271112;28;20190;-61
2022/04/05 04:54:16;;;;;;;11.03;9.07;;;2.50;80.40;;;;;;6273727;28;20280;-61
2022/04/05 04:57:17;;;;;;;11.67;8.93;;;2.50;80.60;;;;;;6297570;28;20192;-60
2022/04/05 05:00:18;;;;;;;9.90;8.23;;;2.50;80.70;;;;;;6305735;28;20212;-61
2022/04/05 05:03:19;;;;;;;10.07;8.03;;;2.50;81.10;;;;;;6288736;28;20214;-61
2022/04/05 05:06:19;;;;;;;10.93;8.07;;;2.60;80.40;;;;;;6266515;28;20379;-62
2022/04/05 05:09:20;;;;;;;10.37;7.73;;;2.60;80.10;;;;;;6264167;28;20510;-61
2022/04/05 05:12:22;;;;;;;10.50;7.93;;;2.60;80.40;;;;;;6304186;28;20184;-61
2022/04/05 05:15:23;;;;;;;10.73;6.50;;;2.50;80.40;;;;;;6297784;28;20196;-61
2022/04/05 05:18:24;;;;;;;8.90;7.07;;;2.50;80.70;;;;;;6273502;28;20195;-62
2022/04/05 05:21:25;;;;;;;9.37;8.00;;;2.60;81.20;;;;;;6280274;28;20219;-62
2022/04/05 05:24:25;;;;;;;13.67;8.73;;;2.60;80.90;;;;;;6282064;28;20199;-61
2022/04/05 05:27:28;;;;;;;12.60;8.57;;;2.70;81.30;;;;;;6281599;28;20640;-61
2022/04/05 05:30:29;;;;;;;13.97;8.70;;;2.70;81.30;;;;;;6312169;28;20258;-61
2022/04/05 05:33:31;;;;;;;12.10;8.37;;;2.80;81.40;;;;;;6287214;28;20192;-62
2022/04/05 05:36:31;;;;;;;11.43;8.77;;;2.80;80.60;;;;;;6304248;28;20197;-62
2022/04/05 05:39:33;;;;;;;11.63;8.47;;;2.90;80.40;;;;;;6249269;28;20193;-61
2022/04/05 05:42:34;;;;;;;10.13;8.00;;;3.00;80.30;;;;;;6287126;28;20224;-61
2022/04/05 05:45:36;;;;;;;11.40;8.00;;;3.10;79.10;;;;;;6280131;28;20188;-61
2022/04/05 05:48:36;;;;;;;8.97;6.73;;;3.20;79.60;;;;;;6290593;28;20286;-62
2022/04/05 05:51:37;;;;;;;10.27;7.83;;;3.30;78.50;;;;;;6305825;28;20203;-62
2022/04/05 05:54:38;;;;;;;8.40;6.50;;;3.30;78.90;;;;;;6272139;28;20202;-61
2022/04/05 05:57:39;;;;;;;9.23;7.20;;;3.30;78.30;;;;;;6292486;28;20206;-62
2022/04/05 06:00:40;;;;;;;8.10;6.43;;;3.30;78.00;;;;;;6271302;28;20220;-62
2022/04/05 06:03:41;;;;;;;11.10;7.77;;;3.40;78.10;;;;;;6284488;28;20181;-62
2022/04/05 06:06:43;;;;;;;9.77;7.43;;;3.30;77.90;;;;;;6284583;28;20553;-62
2022/04/05 06:09:43;;;;;;;7.87;6.90;;;3.30;78.60;;;;;;6299644;28;20256;-62
2022/04/05 06:12:46;;;;;;;8.03;6.37;;;3.30;78.30;;;;;;6281139;28;20208;-62
2022/04/05 06:15:47;;;;;;;8.83;7.93;;;3.40;78.20;;;;;;6300462;28;20232;-62
2022/04/05 06:18:48;;;;;;;12.23;8.13;;;3.30;77.10;;;;;;6282226;28;20193;-62
2022/04/05 06:21:49;;;;;;;10.20;7.63;;;3.30;78.00;;;;;;6281309;28;20212;-62
2022/04/05 06:24:49;;;;;;;9.13;7.17;;;3.30;78.40;;;;;;6263882;28;20216;-62
2022/04/05 06:27:50;;;;;;;10.63;7.23;;;3.30;79.20;;;;;;6297173;28;20252;-62
2022/04/05 06:30:51;;;;;;;8.90;6.87;;;3.40;79.20;;;;;;6278491;28;20202;-62
2022/04/05 06:33:52;;;;;;;8.17;6.90;;;3.60;79.40;;;;;;6296582;28;20196;-62
2022/04/05 06:36:53;;;;;;;8.77;6.90;;;3.60;79.80;;;;;;6311107;28;20215;-62
2022/04/05 06:39:54;;;;;;;8.33;6.67;;;3.70;79.90;;;;;;6295857;28;20253;-62
2022/04/05 06:42:55;;;;;;;8.53;7.00;;;3.80;78.80;;;;;;6280782;28;20246;-62
2022/04/05 06:45:56;;;;;;;11.07;6.60;;;3.80;78.70;;;;;;6281031;28;20189;-62
2022/04/05 06:48:57;;;;;;;12.70;6.73;;;3.80;78.70;;;;;;6263293;28;20188;-62
2022/04/05 06:51:58;;;;;;;9.30;6.77;;;3.90;77.20;;;;;;6281116;28;20188;-62
2022/04/05 06:54:58;;;;;;;9.33;6.60;;;3.90;76.10;;;;;;6279831;28;20189;-62
2022/04/05 06:57:59;;;;;;;8.90;6.60;;;4.00;75.60;;;;;;6297556;28;20198;-62
2022/04/05 07:01:00;;;;;;;10.43;8.10;;;4.00;75.40;;;;;;6297051;28;20221;-62
2022/04/05 07:04:03;;;;;;;9.43;7.43;;;4.10;76.00;;;;;;6296245;28;20232;-62
2022/04/05 07:07:04;;;;;;;10.30;7.30;;;4.20;75.30;;;;;;6264142;28;20189;-62
2022/04/05 07:10:06;;;;;;;13.00;7.13;;;4.30;75.80;;;;;;6275061;28;20218;-62
2022/04/05 07:13:08;;;;;;;9.37;6.87;;;4.30;75.40;;;;;;6279782;28;20224;-62
2022/04/05 07:16:09;;;;;;;8.40;6.47;;;4.40;75.10;;;;;;6278629;28;20354;-62
2022/04/05 07:19:09;;;;;;;9.00;7.37;;;4.50;75.80;;;;;;6263269;28;20187;-62
2022/04/05 07:22:10;;;;;;;10.70;6.83;;;4.70;74.80;;;;;;6261236;28;20224;-62
2022/04/05 07:25:12;;;;;;;9.37;6.43;;;4.70;74.50;;;;;;6296239;28;20188;-59
2022/04/05 07:28:12;;;;;;;10.53;6.93;;;4.80;73.50;;;;;;6294801;28;20244;-60
2022/04/05 07:31:13;;;;;;;7.70;6.53;;;4.80;73.60;;;;;;6278285;28;20203;-61
2022/04/05 07:34:14;;;;;;;7.90;5.67;;;4.80;73.90;;;;;;6295056;28;20188;-61
2022/04/05 07:37:15;;;;;;;9.43;6.63;;;5.00;73.60;;;;;;6278477;28;20238;-61
2022/04/05 07:40:16;;;;;;;10.53;6.93;;;5.00;73.40;;;;;;6276572;28;20216;-61
2022/04/05 07:43:22;;;;;;;7.83;6.50;;;5.00;73.30;;;;;;6265695;28;20206;-61
2022/04/05 07:46:23;;;;;;;10.03;6.57;;;5.10;74.20;;;;;;6255178;28;20190;-61
2022/04/05 07:49:25;;;;;;;11.83;7.17;;;5.20;73.10;;;;;;6255330;28;20217;-61
2022/04/05 07:52:26;;;;;;;11.00;7.30;;;5.30;71.30;;;;;;6287426;28;20283;-61
2022/04/05 07:55:27;;;;;;;12.23;7.23;;;5.30;71.20;;;;;;6273144;28;20228;-61
2022/04/05 07:58:27;;;;;;;10.73;6.57;;;5.50;72.10;;;;;;6294452;28;20185;-61
2022/04/05 08:01:29;;;;;;;15.93;6.93;;;5.50;71.40;;;;;;6277217;28;20761;-61
2022/04/05 08:04:30;;;;;;;10.90;6.33;;;5.70;72.40;;;;;;6295115;28;20222;-61
2022/04/05 08:07:30;;;;;;;8.73;6.53;;;5.80;72.40;;;;;;6277485;28;20192;-61
2022/04/05 08:10:31;;;;;;;8.13;6.07;;;5.90;71.90;;;;;;6277445;28;20200;-61
2022/04/05 08:13:32;;;;;;;7.87;6.07;;;5.90;70.30;;;;;;6261865;28;20220;-61
2022/04/05 08:16:33;;;;;;;11.90;8.37;;;5.80;70.50;;;;;;6278899;28;20253;-61
2022/04/05 08:19:33;;;;;;;8.10;5.80;;;5.90;72.20;;;;;;6280047;28;20208;-60
2022/04/05 08:22:34;;;;;;;8.80;6.97;;;6.10;71.30;;;;;;6279220;28;20217;-60
2022/04/05 08:25:36;;;;;;;9.90;6.60;;;6.20;69.10;;;;;;6277186;28;20266;-60
2022/04/05 08:28:37;;;;;;;11.63;5.37;;;6.30;70.40;;;;;;6261791;28;20596;-61
2022/04/05 08:31:37;;;;;;;10.33;6.77;;;6.40;70.20;;;;;;6260391;28;20201;-61
2022/04/05 08:34:41;;;;;;;7.80;6.47;;;6.40;69.40;;;;;;6293171;28;20184;-61
2022/04/05 08:37:43;;;;;;;11.90;7.73;;;6.50;69.40;;;;;;6293769;28;20247;-60
2022/04/05 08:40:43;;;;;;;8.07;6.77;;;6.60;70.30;;;;;;6293428;28;20217;-61
2022/04/05 08:43:44;;;;;;;9.07;5.73;;;6.50;69.70;;;;;;6277336;28;20208;-61
2022/04/05 08:46:46;;;;;;;7.00;6.00;;;6.60;67.80;;;;;;6277119;28;20196;-61
2022/04/05 08:49:48;;;;;;;6.23;4.83;;;6.50;67.90;;;;;;6292271;28;20204;-61
2022/04/05 08:52:50;;;;;;;9.40;6.50;;;6.60;68.80;;;;;;6293147;28;20272;-61
2022/04/05 08:55:51;;;;;;;9.50;6.30;;;6.70;68.80;;;;;;6275340;28;20288;-61
2022/04/05 08:58:52;;;;;;;6.93;5.20;;;6.70;66.60;;;;;;6276234;28;20201;-61
2022/04/05 09:01:53;;;;;;;10.83;5.77;;;6.70;66.90;;;;;;6293410;28;20213;-61
2022/04/05 09:04:54;;;;;;;7.67;5.97;;;6.80;67.00;;;;;;6277744;28;20213;-61
2022/04/05 09:08:16;;;;;;;10.20;6.10;;;6.80;67.00;;;;;;6276266;28;20195;-61
2022/04/05 09:11:20;;;;;;;9.70;6.33;;;6.90;67.30;;;;;;6291858;28;20200;-61
2022/04/05 09:14:26;;;;;;;6.87;5.93;;;7.00;67.30;;;;;;6266008;28;20246;-61
2022/04/05 09:17:39;;;;;;;5.93;5.20;;;7.20;67.40;;;;;;6298336;28;20242;-61
2022/04/05 09:20:48;;;;;;;13.07;7.83;;;7.30;68.00;;;;;;6320296;28;20278;-61
2022/04/05 09:23:52;;;;;;;12.10;6.83;;;7.60;68.80;;;;;;6300133;28;20194;-61
2022/04/05 09:26:53;;;;;;;12.60;6.53;;;7.60;66.50;;;;;;6293422;28;20193;-61
2022/04/05 09:29:54;;;;;;;14.30;6.53;;;7.70;68.10;;;;;;6294835;28;20240;-61
2022/04/05 09:32:59;;;;;;;7.90;6.23;;;7.80;67.40;;;;;;6277006;28;20196;-61
2022/04/05 09:36:09;;;;;;;10.17;5.13;;;7.90;67.80;;;;;;6276236;28;20205;-61
2022/04/05 09:39:19;;;;;;;8.37;5.17;;;8.10;65.50;;;;;;6290967;28;20233;-61
2022/04/05 09:42:20;;;;;;;8.13;5.23;;;8.30;65.40;;;;;;6272258;28;20213;-61
2022/04/05 09:45:43;;;;;;;6.77;5.90;;;8.30;63.40;;;;;;6280176;28;20226;-61
2022/04/05 09:48:46;;;;;;;7.30;5.93;;;8.20;63.00;;;;;;6297346;28;20206;-61
2022/04/05 09:51:47;;;;;;;5.43;4.93;;;8.30;64.20;;;;;;6279823;28;20205;-61
2022/04/05 09:54:48;;;;;;;9.10;5.87;;;8.60;64.30;;;;;;6265105;28;20203;-61
2022/04/05 09:57:49;;;;;;;8.40;6.13;;;8.80;62.60;;;;;;6272412;28;20205;-61
2022/04/05 10:01:07;;;;;;;7.37;5.70;;;9.00;63.50;;;;;;6257531;28;20267;-61
2022/04/05 10:04:16;;;;;;;9.67;6.03;;;9.20;61.00;;;;;;6274021;28;20233;-61
2022/04/05 10:07:17;;;;;;;9.67;6.27;;;9.30;61.00;;;;;;6293236;28;20565;-60
2022/04/05 10:10:19;;;;;;;9.30;5.50;;;9.30;60.40;;;;;;6281102;28;20189;-60
2022/04/05 10:13:20;;;;;;;8.90;5.40;;;9.40;59.40;;;;;;6279602;28;20197;-60
2022/04/05 10:16:26;;;;;;;7.10;5.43;;;9.80;60.70;;;;;;6273655;28;20197;-60
2022/04/05 10:19:28;;;;;;;10.90;6.30;;;9.80;58.80;;;;;;6274247;28;20194;-60
2022/04/05 10:22:30;;;;;;;8.67;6.13;;;9.80;58.10;;;;;;6268400;28;20235;-60
2022/04/05 10:25:31;;;;;;;10.37;6.17;;;10.00;59.90;;;;;;6297727;28;20242;-60
2022/04/05 10:28:34;;;;;;;8.83;6.23;;;10.30;59.30;;;;;;6245529;28;20329;-60
2022/04/05 10:31:42;;;;;;;7.97;5.83;;;10.50;55.80;;;;;;6248392;28;20206;-60
2022/04/05 10:34:49;;;;;;;6.40;5.30;;;10.50;57.50;;;;;;6281679;28;20226;-60
2022/04/05 10:37:53;;;;;;;8.67;4.87;;;10.70;56.80;;;;;;6268687;28;20194;-60
2022/04/05 10:41:29;;;;;;;10.67;6.03;;;10.80;55.20;;;;;;6283794;28;20218;-60
2022/04/05 10:44:30;;;;;;;8.37;5.20;;;10.60;55.40;;;;;;6239372;28;20219;-60
2022/04/05 10:47:30;;;;;;;9.20;5.10;;;10.80;56.30;;;;;;6267222;28;20186;-60
2022/04/05 10:50:31;;;;;;;9.53;5.37;;;10.80;54.60;;;;;;6257688;28;20222;-60
2022/04/05 10:53:36;;;;;;;9.10;5.43;;;10.90;55.40;;;;;;6251212;28;20314;-60
2022/04/05 10:56:37;;;;;;;10.20;5.07;;;11.00;54.10;;;;;;6250102;28;20272;-60
2022/04/05 10:59:55;;;;;;;5.20;4.73;;;11.20;53.00;;;;;;6243331;28;20194;-61
2022/04/05 11:02:58;;;;;;;7.70;4.80;;;11.30;52.00;;;;;;6230042;28;20241;-61
2022/04/05 11:06:03;;;;;;;5.43;4.90;;;11.30;53.10;;;;;;6244354;28;20188;-61
2022/04/05 11:09:23;;;;;;;6.60;3.83;;;11.30;51.60;;;;;;6281607;28;20287;-60
2022/04/05 11:12:30;;;;;;;5.80;3.97;;;11.30;53.10;;;;;;6260267;28;20199;-60
2022/04/05 11:15:51;;;;;;;5.97;4.37;;;11.70;52.40;;;;;;6250372;28;20195;-60
2022/04/05 11:18:57;;;;;;;6.43;3.70;;;11.90;50.30;;;;;;6265340;28;20246;-61
2022/04/05 11:22:23;;;;;;;4.47;3.70;;;12.00;50.10;;;;;;6255195;28;20218;-61
2022/04/05 11:25:29;;;;;;;5.07;3.23;;;12.30;49.00;;;;;;6267971;28;20199;-60
2022/04/05 11:28:45;;;;;;;7.43;4.13;;;12.30;50.00;;;;;;6242175;28;20251;-61
2022/04/05 11:32:05;;;;;;;7.33;4.17;;;12.20;48.90;;;;;;6223609;28;20190;-61
2022/04/05 11:35:05;;;;;;;6.03;4.07;;;12.20;48.60;;;;;;6245435;28;20272;-61
2022/04/05 11:38:32;;;;;;;6.90;4.13;;;12.40;48.60;;;;;;6239698;28;20213;-61
2022/04/05 11:41:33;;;;;;;5.87;4.63;;;12.30;48.10;;;;;;6207743;28;20242;-61
2022/04/05 11:44:34;;;;;;;8.03;4.50;;;12.70;49.60;;;;;;6239022;28;20238;-61
2022/04/05 11:47:35;;;;;;;5.03;4.50;;;12.80;48.70;;;;;;6255073;28;20197;-61
2022/04/05 11:50:37;;;;;;;7.17;5.07;;;12.90;47.80;;;;;;6236898;28;20199;-61
2022/04/05 11:53:39;;;;;;;6.77;4.47;;;13.00;47.40;;;;;;6242593;28;20232;-61
2022/04/05 11:56:41;;;;;;;6.70;4.50;;;13.30;49.20;;;;;;6238983;28;20201;-61
2022/04/05 11:59:42;;;;;;;7.77;4.87;;;13.30;47.50;;;;;;6268841;28;20242;-61
2022/04/05 12:02:42;;;;;;;7.30;5.37;;;13.40;47.30;;;;;;6234537;28;20226;-61
2022/04/05 12:05:44;;;;;;;12.40;5.70;;;13.60;46.60;;;;;;6241117;28;20179;-61
2022/04/05 12:08:46;;;;;;;8.37;4.97;;;13.70;46.20;;;;;;6208148;28;20238;-61
2022/04/05 12:11:50;;;;;;;11.80;5.20;;;13.60;45.50;;;;;;6223419;28;20199;-61
2022/04/05 12:14:51;;;;;;;6.50;5.60;;;13.80;46.30;;;;;;6245930;28;20209;-61
2022/04/05 12:18:11;;;;;;;12.27;6.23;;;14.10;46.50;;;;;;6238883;28;20276;-61
2022/04/05 12:21:12;;;;;;;8.43;5.77;;;14.30;44.40;;;;;;6256100;28;20214;-61
2022/04/05 12:24:14;;;;;;;9.40;4.93;;;14.30;44.30;;;;;;6251399;28;20197;-61
2022/04/05 12:27:17;;;;;;;12.53;4.77;;;14.70;45.80;;;;;;6249350;28;20438;-61
2022/04/05 12:30:28;;;;;;;6.47;4.23;;;14.70;43.00;;;;;;6269222;28;20233;-61
2022/04/05 12:33:29;;;;;;;8.07;4.47;;;14.80;44.20;;;;;;6293659;28;20189;-61
2022/04/05 12:36:35;;;;;;;7.97;4.80;;;15.10;43.70;;;;;;6306370;28;20199;-61
2022/04/05 12:39:48;;;;;;;6.47;4.00;;;15.60;43.50;;;;;;6297234;28;20286;-61
2022/04/05 12:42:49;;;;;;;8.17;4.40;;;16.30;40.20;;;;;;6294829;28;20256;-61
2022/04/05 12:45:50;;;;;;;10.70;4.13;;;16.20;39.80;;;;;;6276090;28;20200;-61
2022/04/05 12:48:51;;;;;;;5.90;4.10;;;16.80;39.90;;;;;;6295446;28;20193;-61
2022/04/05 12:51:52;;;;;;;4.73;3.50;;;17.30;38.40;;;;;;6294776;28;20208;-61
2022/04/05 12:54:57;;;;;;;3.57;3.13;;;16.80;37.80;;;;;;6294919;28;20184;-61
2022/04/05 12:57:58;;;;;;;4.53;3.00;;;16.70;37.70;;;;;;6278373;28;20185;-60
2022/04/05 13:00:58;;;;;;;3.27;2.97;;;16.50;39.70;;;;;;6271319;28;20320;-60
2022/04/05 13:04:03;;;;;;;6.03;3.40;;;16.60;39.30;;;;;;6277838;28;20224;-61
2022/04/05 13:07:05;;;;;;;5.37;3.07;;;16.70;38.60;;;;;;6269695;28;20194;-61
2022/04/05 13:10:11;;;;;;;7.33;4.20;;;17.10;39.00;;;;;;6288120;28;20186;-61
2022/04/05 13:13:22;;;;;;;9.47;4.43;;;16.90;37.80;;;;;;6294451;28;20199;-61
2022/04/05 13:16:27;;;;;;;5.00;3.57;;;17.40;38.30;;;;;;6295079;28;20274;-61
2022/04/05 13:19:28;;;;;;;6.37;4.37;;;17.80;38.10;;;;;;6277548;28;20197;-61
2022/04/05 13:22:28;;;;;;;6.97;4.37;;;18.00;36.20;;;;;;6283329;28;20270;-60
2022/04/05 13:25:37;;;;;;;7.10;3.60;;;17.80;36.60;;;;;;6298599;28;20193;-60
2022/04/05 13:28:38;;;;;;;3.00;2.40;;;18.10;35.20;;;;;;6299545;28;20248;-60
2022/04/05 13:31:43;;;;;;;5.03;2.70;;;17.30;36.40;;;;;;6266353;28;20194;-60
2022/04/05 13:34:45;;;;;;;7.50;2.97;;;17.40;37.40;;;;;;6266350;28;20280;-60
2022/04/05 13:37:46;;;;;;;4.87;3.30;;;17.50;36.90;;;;;;6282397;28;20197;-60
2022/04/05 13:40:47;;;;;;;2.63;2.30;;;17.20;37.80;;;;;;6281934;28;20217;-60
2022/04/05 13:43:48;;;;;;;4.33;3.33;;;17.70;37.80;;;;;;6266051;28;20173;-60
2022/04/05 13:46:48;;;;;;;3.77;3.00;;;18.10;35.00;;;;;;6276339;28;20196;-60
2022/04/05 13:49:49;;;;;;;5.63;2.77;;;18.80;36.40;;;;;;6266143;28;20180;-60
2022/04/05 13:52:50;;;;;;;4.17;2.80;;;20.60;35.70;;;;;;6276775;28;20203;-61
2022/04/05 13:55:51;;;;;;;5.23;2.93;;;21.10;32.70;;;;;;6281997;28;20197;-61
2022/04/05 13:58:51;;;;;;;4.63;2.93;;;20.30;32.60;;;;;;6274744;28;20200;-61
2022/04/05 14:01:52;;;;;;;5.47;2.90;;;20.60;35.00;;;;;;6266250;28;20225;-61
2022/04/05 14:04:53;;;;;;;8.20;2.87;;;21.70;33.90;;;;;;6307050;28;20192;-61
2022/04/05 14:07:55;;;;;;;5.90;3.00;;;23.20;30.50;;;;;;6305881;28;20188;-61
2022/04/05 14:10:55;;;;;;;5.43;2.60;;;23.00;30.90;;;;;;6300202;28;20208;-59
2022/04/05 14:13:57;;;;;;;4.80;3.03;;;21.90;30.10;;;;;;6286354;28;20196;-59
2022/04/05 14:16:59;;;;;;;4.27;2.67;;;21.70;30.70;;;;;;6306584;28;20199;-59
2022/04/05 14:19:59;;;;;;;3.90;2.60;;;22.00;31.90;;;;;;6286011;28;20197;-59
2022/04/05 14:23:00;;;;;;;6.70;2.60;;;22.20;30.80;;;;;;6295040;28;20269;-60
2022/04/05 14:26:04;;;;;;;4.43;2.70;;;23.00;30.70;;;;;;6301451;28;20189;-61
2022/04/05 14:29:05;;;;;;;4.97;2.37;;;23.80;28.60;;;;;;6298326;28;20316;-60
2022/04/05 14:32:06;;;;;;;3.10;2.80;;;24.80;27.20;;;;;;6317003;28;20212;-60
2022/04/05 14:35:08;;;;;;;3.83;2.17;;;26.10;26.60;;;;;;6316175;28;20188;-60
2022/04/05 14:38:09;;;;;;;3.70;2.40;;;27.50;25.50;;;;;;6298606;28;20287;-60
2022/04/05 14:41:12;;;;;;;4.40;2.90;;;29.00;23.10;;;;;;6312079;28;20251;-60
2022/04/05 14:44:13;;;;;;;5.50;2.30;;;28.70;22.20;;;;;;6277468;28;20216;-60
2022/04/05 14:47:13;;;;;;;4.80;2.60;;;27.10;24.60;;;;;;6298015;28;20198;-60
2022/04/05 14:50:14;;;;;;;3.00;2.70;;;25.30;25.90;;;;;;6289393;28;20224;-59
2022/04/05 14:53:15;;;;;;;2.73;2.40;;;23.50;27.60;;;;;;6278418;28;20204;-59
2022/04/05 14:56:16;;;;;;;4.00;2.50;;;22.10;30.50;;;;;;6292892;28;20228;-59
2022/04/05 14:59:17;;;;;;;2.37;2.17;;;21.60;31.90;;;;;;6292594;28;20283;-59
2022/04/05 15:02:19;;;;;;;3.07;2.20;;;21.00;31.70;;;;;;6311176;28;20211;-59
2022/04/05 15:05:20;;;;;;;2.87;2.33;;;19.80;33.00;;;;;;6276977;28;20189;-59
2022/04/05 15:08:21;;;;;;;2.73;2.33;;;19.10;34.70;;;;;;6259926;28;20212;-59
2022/04/05 15:11:22;;;;;;;5.17;2.40;;;18.90;35.10;;;;;;6303825;28;20197;-59
2022/04/05 15:14:23;;;;;;;4.93;2.13;;;18.50;36.80;;;;;;6280357;28;20225;-59
2022/04/05 15:17:24;;;;;;;3.57;2.03;;;18.20;37.20;;;;;;6317264;28;20201;-59
2022/04/05 15:20:26;;;;;;;3.20;2.13;;;17.80;36.80;;;;;;6278707;28;20227;-60
2022/04/05 15:23:27;;;;;;;2.20;2.03;;;17.40;39.10;;;;;;6287630;28;20196;-59
2022/04/05 15:26:28;;;;;;;2.57;1.70;;;17.00;38.40;;;;;;6287589;28;20201;-59
2022/04/05 15:29:38;;;;;;;3.30;2.00;;;17.10;38.40;;;;;;6291116;28;20257;-59
2022/04/05 15:32:39;;;;;;;4.27;2.07;;;17.10;38.00;;;;;;6319428;28;20185;-59
2022/04/05 15:35:40;;;;;;;3.57;2.17;;;16.80;38.50;;;;;;6280078;28;20226;-60
2022/04/05 15:38:41;;;;;;;4.00;1.70;;;16.40;38.40;;;;;;6264154;28;20228;-59
2022/04/05 15:41:41;;;;;;;3.43;1.67;;;16.20;38.80;;;;;;6264282;28;20314;-59
2022/04/05 15:44:42;;;;;;;1.73;1.63;;;16.30;40.20;;;;;;6280380;28;20189;-60
2022/04/05 15:47:43;;;;;;;9.07;1.90;;;16.20;43.50;;;;;;6278196;28;20194;-60
2022/04/05 15:50:44;;;;;;;2.23;1.97;;;16.10;44.40;;;;;;6293359;28;20201;-60
2022/04/05 15:53:45;;;;;;;1.93;1.47;;;15.90;45.30;;;;;;6270772;28;20197;-59
2022/04/05 15:56:45;;;;;;;2.67;1.80;;;15.90;44.90;;;;;;6256330;28;20189;-59